Time;durP1;ratioP1;P1;durP2;ratioP2;P2;SDS_P1;SDS_P2;PMS_P1;PMS_P2;Temp;Humidity;BMP_temperature;BMP_pressure;BME280_temperature;BME280_humidity;BME280_pressure;Samples;Min_cycle;Max_cycle;Signal;HPM_P1;HPM_P2
2023/08/10 00:00:59;;;;;;;3.90;2.45;;;10.60;99.90;;;;;;5053728;28;20178;-78
2023/08/10 00:03:24;;;;;;;3.28;2.67;;;10.50;99.90;;;;;;5053810;28;20209;-78
2023/08/10 00:05:50;;;;;;;3.50;2.90;;;10.40;99.90;;;;;;5053706;28;20202;-78
2023/08/10 00:08:16;;;;;;;6.00;2.60;;;10.50;99.90;;;;;;5054598;28;20182;-78
2023/08/10 00:10:41;;;;;;;3.42;2.80;;;10.50;99.90;;;;;;5053584;28;20182;-78
2023/08/10 00:13:08;;;;;;;6.78;2.60;;;10.50;99.90;;;;;;5054457;28;20519;-78
2023/08/10 00:15:34;;;;;;;4.30;2.40;;;10.60;99.90;;;;;;5054616;28;20170;-78
2023/08/10 00:18:00;;;;;;;3.72;2.58;;;10.60;99.90;;;;;;5053167;28;20201;-78
2023/08/10 00:20:25;;;;;;;3.00;2.70;;;10.70;99.90;;;;;;5071143;28;20264;-78
2023/08/10 00:22:52;;;;;;;4.40;2.70;;;10.70;99.90;;;;;;5054470;28;20185;-78
2023/08/10 00:25:17;;;;;;;3.95;2.97;;;10.70;99.90;;;;;;5053634;28;20660;-78
2023/08/10 00:27:43;;;;;;;4.93;2.85;;;10.80;99.90;;;;;;5053463;28;20194;-78
2023/08/10 00:30:09;;;;;;;3.22;2.50;;;10.80;99.90;;;;;;5054601;28;20190;-78
2023/08/10 00:32:35;;;;;;;4.03;2.72;;;10.90;99.90;;;;;;5053686;28;20179;-78
2023/08/10 00:35:02;;;;;;;2.80;2.60;;;10.70;99.90;;;;;;5053673;28;20201;-78
2023/08/10 00:37:28;;;;;;;3.83;2.90;;;10.60;99.90;;;;;;5054355;28;20201;-78
2023/08/10 00:39:58;;;;;;;4.32;2.83;;;10.60;99.90;;;;;;5053495;28;20198;-78
2023/08/10 00:42:24;;;;;;;4.60;2.47;;;10.50;99.90;;;;;;5053060;28;20205;-78
2023/08/10 00:44:49;;;;;;;4.25;2.65;;;10.60;99.90;;;;;;5052979;28;20533;-78
2023/08/10 00:47:15;;;;;;;3.33;2.80;;;10.60;99.90;;;;;;5053430;28;20229;-78
2023/08/10 00:49:40;;;;;;;2.70;2.50;;;10.40;99.90;;;;;;5052658;28;20202;-78
2023/08/10 00:52:06;;;;;;;2.67;2.47;;;10.50;99.90;;;;;;5052879;28;20174;-78
2023/08/10 00:54:32;;;;;;;4.97;2.40;;;10.40;99.90;;;;;;5053957;28;20185;-78
2023/08/10 00:56:59;;;;;;;4.38;3.05;;;10.50;99.90;;;;;;5052969;28;20190;-78
2023/08/10 00:59:25;;;;;;;6.90;2.35;;;10.60;99.90;;;;;;5053502;28;20183;-78
2023/08/10 08:35:11;;;;;;;3.85;2.10;;;20.40;99.90;;;;;;5350579;23;20252;-85
2023/08/10 08:37:36;;;;;;;2.92;1.98;;;20.50;99.90;;;;;;4975390;28;20204;-86
2023/08/10 08:40:13;;;;;;;2.20;1.92;;;20.50;99.90;;;;;;4975511;28;20181;-86
2023/08/10 08:42:40;;;;;;;2.13;1.70;;;20.80;99.90;;;;;;4978929;28;20180;-85
2023/08/10 08:45:06;;;;;;;2.20;1.98;;;21.30;99.90;;;;;;4975184;28;20599;-89
2023/08/10 08:47:32;;;;;;;3.40;1.98;;;21.50;98.70;;;;;;4975200;28;20197;-88
2023/08/10 08:49:58;;;;;;;2.35;2.00;;;21.60;97.90;;;;;;4974660;28;20244;-89
2023/08/10 08:52:24;;;;;;;3.38;2.15;;;21.60;96.70;;;;;;4975378;28;20183;-89
2023/08/10 08:54:51;;;;;;;2.50;2.13;;;21.70;97.10;;;;;;4974056;28;20192;-89
2023/08/10 08:57:16;;;;;;;3.33;2.22;;;21.70;96.50;;;;;;4973943;28;20203;-89
2023/08/10 08:59:42;;;;;;;4.05;2.22;;;21.70;96.00;;;;;;4974091;28;20267;-89
2023/08/10 09:02:10;;;;;;;3.38;2.20;;;21.80;96.20;;;;;;4973599;28;20177;-88
2023/08/10 09:04:35;;;;;;;3.67;2.05;;;21.60;96.70;;;;;;4974649;28;20587;-89
2023/08/10 09:07:01;;;;;;;4.50;2.15;;;21.20;96.30;;;;;;4974125;28;20204;-89
2023/08/10 09:09:27;;;;;;;5.45;2.10;;;21.00;97.10;;;;;;4974917;28;20265;-89
2023/08/10 09:11:53;;;;;;;2.63;2.15;;;20.80;97.30;;;;;;4974360;28;20219;-89
2023/08/10 09:14:19;;;;;;;6.20;2.15;;;20.80;97.30;;;;;;4973804;28;20177;-89
2023/08/10 09:16:45;;;;;;;7.07;4.45;;;20.80;97.00;;;;;;4974623;28;20204;-89
2023/08/10 09:19:14;;;;;;;2.40;2.17;;;20.80;97.10;;;;;;4973852;28;20213;-89
2023/08/10 09:21:40;;;;;;;4.00;2.38;;;20.60;96.40;;;;;;4974701;28;20659;-89
2023/08/10 09:24:10;;;;;;;2.58;2.38;;;20.50;97.30;;;;;;4975353;28;20177;-89
2023/08/10 09:26:39;;;;;;;5.15;2.78;;;20.30;97.50;;;;;;4974402;28;20201;-89
2023/08/10 09:29:04;;;;;;;3.10;2.80;;;20.40;96.20;;;;;;4973277;28;20295;-89
2023/08/10 09:31:30;;;;;;;2.50;2.30;;;20.50;96.00;;;;;;4974043;28;20225;-87
2023/08/10 09:33:59;;;;;;;2.45;2.10;;;20.60;96.20;;;;;;4973888;28;20173;-87
2023/08/10 09:36:33;;;;;;;2.80;2.40;;;20.90;96.50;;;;;;4979364;28;20221;-87
2023/08/10 09:39:00;;;;;;;2.47;2.28;;;21.00;96.30;;;;;;4989904;28;20181;-87
2023/08/10 09:41:29;;;;;;;3.67;2.30;;;21.20;96.50;;;;;;4977414;28;20252;-87
2023/08/10 09:43:55;;;;;;;4.90;2.00;;;21.50;96.20;;;;;;4973881;28;20181;-87
2023/08/10 09:46:21;;;;;;;2.47;2.00;;;21.50;95.70;;;;;;4973995;28;20549;-87
2023/08/10 09:48:49;;;;;;;2.72;2.35;;;21.20;94.70;;;;;;4978023;28;20191;-87
2023/08/10 09:51:15;;;;;;;5.38;2.45;;;20.80;94.40;;;;;;4976572;28;20181;-87
2023/08/10 09:53:41;;;;;;;3.88;2.33;;;20.50;95.60;;;;;;4977685;28;20504;-87
2023/08/10 09:56:10;;;;;;;7.38;2.58;;;20.40;96.40;;;;;;4977990;28;20224;-87
2023/08/10 09:58:37;;;;;;;2.70;2.35;;;20.40;96.50;;;;;;4979132;28;20616;-88
2023/08/10 10:01:08;;;;;;;5.90;2.53;;;20.70;96.60;;;;;;4976820;28;20188;-87
2023/08/10 10:03:34;;;;;;;3.88;2.33;;;20.90;94.60;;;;;;4976911;28;20172;-87
2023/08/10 10:06:01;;;;;;;2.65;2.45;;;21.10;93.50;;;;;;4980030;28;20204;-87
2023/08/10 10:08:28;;;;;;;4.10;2.30;;;21.20;93.00;;;;;;4977171;28;20188;-87
2023/08/10 10:11:01;;;;;;;2.95;2.30;;;21.40;94.50;;;;;;4976278;28;20196;-87
2023/08/10 10:13:28;;;;;;;2.58;2.38;;;21.70;94.90;;;;;;4976770;28;20280;-88
2023/08/10 10:15:55;;;;;;;3.65;2.08;;;21.90;94.00;;;;;;4977312;28;20201;-87
2023/08/10 10:18:22;;;;;;;2.80;2.40;;;22.20;91.80;;;;;;4976361;28;20192;-86
2023/08/10 10:20:49;;;;;;;3.70;2.40;;;22.40;91.20;;;;;;4976887;28;20239;-89
2023/08/10 10:29:16;;;;;;;2.72;2.53;;;22.80;87.10;;;;;;4969178;29;20245;-80
2023/08/10 10:31:42;;;;;;;4.55;2.20;;;22.80;85.10;;;;;;4986998;28;20174;-80
2023/08/10 10:34:17;;;;;;;2.78;2.25;;;22.70;86.40;;;;;;4970290;29;20185;-80
2023/08/10 10:36:46;;;;;;;2.35;2.10;;;22.50;86.20;;;;;;4968957;28;20207;-80
2023/08/10 10:39:19;;;;;;;3.97;2.63;;;22.60;88.20;;;;;;4968959;29;20188;-80
2023/08/10 10:41:45;;;;;;;2.53;2.30;;;22.70;85.00;;;;;;4969306;29;20232;-81
2023/08/10 10:44:11;;;;;;;2.35;2.15;;;22.70;84.40;;;;;;4969166;29;20182;-81
2023/08/10 10:46:38;;;;;;;4.63;2.25;;;22.90;82.70;;;;;;4966677;28;20289;-81
2023/08/10 10:49:07;;;;;;;2.67;2.40;;;22.80;81.70;;;;;;4966846;29;20703;-81
2023/08/10 10:51:53;;;;;;;2.47;2.22;;;22.80;81.40;;;;;;4967440;29;20181;-81
2023/08/10 10:54:18;;;;;;;3.30;2.00;;;22.80;84.20;;;;;;4968883;29;20197;-81
2023/08/10 10:56:50;;;;;;;4.57;2.45;;;22.70;82.50;;;;;;4969241;28;20198;-81
2023/08/10 10:59:16;;;;;;;2.88;2.30;;;22.70;82.10;;;;;;4964419;28;20213;-81
2023/08/10 11:01:46;;;;;;;5.03;2.10;;;22.80;82.60;;;;;;4964006;28;20185;-81
2023/08/10 11:04:11;;;;;;;2.83;2.10;;;23.00;83.00;;;;;;4963748;29;20240;-81
2023/08/10 11:06:38;;;;;;;2.50;2.30;;;23.30;80.90;;;;;;4962083;28;20228;-81
2023/08/10 11:09:07;;;;;;;5.63;2.50;;;23.70;82.60;;;;;;4964156;29;20202;-81
2023/08/10 11:11:47;;;;;;;2.60;2.40;;;23.80;80.30;;;;;;4963826;28;20223;-81
2023/08/10 11:14:14;;;;;;;2.80;2.55;;;23.50;80.40;;;;;;4962397;29;20260;-81
2023/08/10 11:16:44;;;;;;;2.20;2.00;;;23.70;81.40;;;;;;4963723;28;20201;-81
2023/08/10 11:19:13;;;;;;;2.85;2.00;;;23.60;78.10;;;;;;4963198;29;20526;-81
2023/08/10 11:21:43;;;;;;;2.63;2.10;;;23.70;78.40;;;;;;4964660;29;20188;-81
2023/08/10 11:24:09;;;;;;;3.28;2.20;;;23.70;77.20;;;;;;4968686;29;20177;-81
2023/08/10 11:26:36;;;;;;;2.90;2.50;;;23.60;77.60;;;;;;4971485;28;20198;-81
2023/08/10 11:29:02;;;;;;;3.08;2.20;;;23.30;76.20;;;;;;4967462;29;20209;-81
2023/08/10 11:31:42;;;;;;;3.00;2.08;;;22.80;76.30;;;;;;4983722;28;20228;-80
2023/08/10 11:34:29;;;;;;;4.45;2.28;;;22.40;82.30;;;;;;4968523;29;20197;-80
2023/08/10 11:36:55;;;;;;;3.28;2.22;;;22.40;82.30;;;;;;4969150;28;20626;-80
2023/08/10 11:39:22;;;;;;;3.78;2.50;;;22.70;80.20;;;;;;4968402;29;20188;-80
2023/08/10 11:41:49;;;;;;;3.40;2.20;;;22.70;79.50;;;;;;4971438;29;20188;-80
2023/08/10 11:44:30;;;;;;;2.38;2.00;;;22.50;80.20;;;;;;4968845;29;20185;-80
2023/08/10 11:47:00;;;;;;;2.60;2.28;;;22.70;80.10;;;;;;4968176;28;20201;-80
2023/08/10 11:49:32;;;;;;;3.03;2.20;;;22.90;80.00;;;;;;4967959;29;20572;-80
2023/08/10 11:52:02;;;;;;;4.03;2.50;;;23.00;77.70;;;;;;4968147;29;20181;-80
2023/08/10 11:54:34;;;;;;;3.33;2.00;;;23.10;78.40;;;;;;4968106;29;20169;-80
2023/08/10 11:57:16;;;;;;;3.17;2.42;;;23.10;78.80;;;;;;4965984;28;20224;-80
2023/08/10 11:59:42;;;;;;;3.85;2.50;;;23.10;79.60;;;;;;4967532;29;20185;-80
2023/08/10 12:02:11;;;;;;;2.90;2.33;;;23.20;79.90;;;;;;4968375;29;20263;-80
2023/08/10 12:04:37;;;;;;;2.60;2.40;;;23.40;79.50;;;;;;4967225;29;20276;-79
2023/08/10 12:07:07;;;;;;;2.70;2.28;;;23.40;78.50;;;;;;4966527;28;20209;-80
2023/08/10 12:09:33;;;;;;;5.28;2.05;;;23.30;77.50;;;;;;4966813;28;20212;-80
2023/08/10 12:11:59;;;;;;;2.60;2.40;;;23.40;78.50;;;;;;4966703;29;20206;-80
2023/08/10 12:14:26;;;;;;;3.03;2.00;;;23.40;75.30;;;;;;4967571;29;20185;-81
2023/08/10 12:16:52;;;;;;;2.65;2.13;;;23.60;76.30;;;;;;4966428;28;20668;-81
2023/08/10 12:19:20;;;;;;;3.20;2.42;;;23.60;76.70;;;;;;4966044;29;20182;-81
2023/08/10 12:21:46;;;;;;;2.38;2.00;;;23.80;75.90;;;;;;4965507;29;20177;-81
2023/08/10 12:24:12;;;;;;;4.22;2.20;;;23.80;78.30;;;;;;4965897;29;20186;-80
2023/08/10 12:26:38;;;;;;;2.60;2.17;;;23.70;75.60;;;;;;4966614;28;20236;-80
2023/08/10 12:29:03;;;;;;;2.92;2.17;;;23.50;75.50;;;;;;4965342;29;20245;-80
2023/08/10 12:31:29;;;;;;;2.35;2.00;;;23.10;74.20;;;;;;4982627;28;20192;-80
2023/08/10 12:33:56;;;;;;;4.25;2.38;;;23.20;77.40;;;;;;4968681;29;20277;-80
2023/08/10 12:36:22;;;;;;;2.10;2.00;;;23.20;76.80;;;;;;4966609;28;20208;-81
2023/08/10 12:38:47;;;;;;;2.50;2.30;;;23.10;78.80;;;;;;4964427;29;20181;-81
2023/08/10 12:41:13;;;;;;;2.65;2.05;;;23.10;79.20;;;;;;4964123;29;20177;-81
2023/08/10 12:43:38;;;;;;;2.53;2.33;;;23.20;75.50;;;;;;4963470;29;20197;-80
2023/08/10 12:46:06;;;;;;;2.42;2.22;;;23.30;73.10;;;;;;4964404;28;20212;-80
2023/08/10 12:48:37;;;;;;;2.28;2.17;;;23.30;72.70;;;;;;4962410;29;20261;-80
2023/08/10 12:51:05;;;;;;;2.55;2.28;;;23.40;73.00;;;;;;4963375;29;20232;-80
2023/08/10 12:53:32;;;;;;;2.72;1.95;;;23.70;74.80;;;;;;4964051;29;20193;-80
2023/08/10 12:56:01;;;;;;;2.90;2.13;;;24.00;74.00;;;;;;4964129;28;20193;-81
2023/08/10 12:58:27;;;;;;;2.25;2.08;;;24.30;74.10;;;;;;4964595;29;20188;-80
2023/08/10 13:00:52;;;;;;;2.47;2.28;;;24.30;73.40;;;;;;4964755;29;20182;-80
2023/08/10 13:03:18;;;;;;;3.03;2.15;;;24.10;75.70;;;;;;4965391;29;20209;-81
2023/08/10 13:05:43;;;;;;;2.55;2.35;;;23.80;72.70;;;;;;4965502;28;20212;-80
2023/08/10 13:08:12;;;;;;;3.25;2.08;;;23.80;73.70;;;;;;4966082;29;20173;-80
2023/08/10 13:10:38;;;;;;;3.50;2.10;;;23.60;72.20;;;;;;4965645;29;20205;-81
2023/08/10 13:13:04;;;;;;;2.60;2.00;;;23.30;71.60;;;;;;4966125;29;20208;-81
2023/08/10 13:15:30;;;;;;;2.90;2.70;;;23.20;74.20;;;;;;4967634;28;20169;-81
2023/08/10 13:17:56;;;;;;;3.40;2.40;;;23.20;74.00;;;;;;4965736;29;20182;-81
2023/08/10 13:20:21;;;;;;;3.40;2.10;;;23.40;74.80;;;;;;4965419;28;20665;-81
2023/08/10 13:22:48;;;;;;;3.15;2.08;;;23.60;76.00;;;;;;4969169;29;20192;-81
2023/08/10 13:25:14;;;;;;;3.38;2.28;;;23.70;70.00;;;;;;4972413;29;20516;-81
2023/08/10 13:27:40;;;;;;;2.42;1.98;;;23.70;72.40;;;;;;4969851;28;20228;-81
2023/08/10 13:30:06;;;;;;;3.78;2.38;;;23.90;71.90;;;;;;4970019;29;20214;-81
2023/08/10 13:32:32;;;;;;;2.88;2.13;;;24.10;71.20;;;;;;4985836;28;20185;-81
2023/08/10 13:34:57;;;;;;;2.72;2.03;;;24.30;69.10;;;;;;4969644;29;20177;-80
2023/08/10 13:37:23;;;;;;;2.65;2.20;;;24.10;71.80;;;;;;4968586;28;20208;-81
2023/08/10 13:39:48;;;;;;;5.63;2.20;;;24.10;71.60;;;;;;4970011;29;20268;-81
2023/08/10 13:42:14;;;;;;;1.77;1.70;;;24.10;72.30;;;;;;4971040;29;20195;-81
2023/08/10 13:44:39;;;;;;;2.17;2.08;;;24.00;71.90;;;;;;4969808;29;20240;-81
2023/08/10 13:47:05;;;;;;;2.47;2.10;;;23.90;74.00;;;;;;4969876;28;20206;-81
2023/08/10 13:49:31;;;;;;;2.53;2.33;;;23.90;73.30;;;;;;4969333;29;20205;-81
2023/08/10 13:51:57;;;;;;;2.20;2.00;;;24.00;72.50;;;;;;4968947;29;20188;-81
2023/08/10 13:54:23;;;;;;;2.92;2.10;;;23.90;69.60;;;;;;4968030;29;20225;-81
2023/08/10 13:56:57;;;;;;;2.75;2.20;;;23.80;71.80;;;;;;4969219;28;20202;-81
2023/08/10 13:59:24;;;;;;;2.10;2.00;;;23.60;69.80;;;;;;4968707;29;20173;-81
2023/08/10 14:01:51;;;;;;;3.28;2.08;;;23.30;73.10;;;;;;4968841;29;20182;-81
2023/08/10 14:04:19;;;;;;;2.45;2.25;;;23.00;73.00;;;;;;4968271;29;20253;-81
2023/08/10 14:06:49;;;;;;;2.10;2.00;;;22.80;75.00;;;;;;4968912;28;20201;-81
2023/08/10 14:09:17;;;;;;;2.88;2.20;;;22.90;74.30;;;;;;4964507;29;20205;-81
2023/08/10 14:11:49;;;;;;;2.03;1.92;;;23.00;74.70;;;;;;4960483;29;20178;-80
2023/08/10 14:14:17;;;;;;;2.92;2.20;;;22.90;73.30;;;;;;4960361;29;20178;-80
2023/08/10 14:16:43;;;;;;;3.35;2.15;;;22.90;73.30;;;;;;4960868;28;20208;-80
2023/08/10 14:19:09;;;;;;;2.78;2.20;;;23.00;75.10;;;;;;4960597;29;20186;-80
2023/08/10 14:21:35;;;;;;;2.35;2.03;;;23.10;73.30;;;;;;4960534;29;20278;-80
2023/08/10 14:24:01;;;;;;;2.15;1.95;;;23.20;73.60;;;;;;4961220;29;20188;-79
2023/08/10 14:26:27;;;;;;;5.07;2.20;;;23.30;70.20;;;;;;4962031;29;20201;-80
2023/08/10 14:28:53;;;;;;;2.13;1.90;;;23.30;73.10;;;;;;4959607;29;20225;-80
2023/08/10 14:31:18;;;;;;;4.10;2.20;;;23.20;73.30;;;;;;4960891;29;20177;-80
2023/08/10 14:33:44;;;;;;;2.17;1.80;;;23.10;73.60;;;;;;4975109;28;20185;-80
2023/08/10 14:36:15;;;;;;;2.83;1.92;;;23.20;72.40;;;;;;4960981;28;20288;-80
2023/08/10 14:38:41;;;;;;;4.10;2.35;;;23.20;71.60;;;;;;4963241;29;20212;-80
2023/08/10 14:41:07;;;;;;;2.47;2.28;;;23.30;71.30;;;;;;4965021;29;20181;-81
2023/08/10 14:43:42;;;;;;;2.45;2.00;;;23.40;69.80;;;;;;4960230;29;20186;-81
2023/08/10 14:46:08;;;;;;;2.40;2.20;;;23.50;69.30;;;;;;4961296;28;20201;-81
2023/08/10 14:48:33;;;;;;;2.85;2.00;;;23.40;69.50;;;;;;4962101;29;20188;-81
2023/08/10 14:50:59;;;;;;;3.80;1.90;;;23.30;69.70;;;;;;4959487;29;20205;-81
2023/08/10 14:53:28;;;;;;;2.20;2.00;;;23.30;69.90;;;;;;4960177;29;20181;-81
2023/08/10 14:55:53;;;;;;;2.50;2.22;;;23.40;71.30;;;;;;4960338;28;20200;-81
2023/08/10 14:58:19;;;;;;;3.47;2.15;;;23.40;70.30;;;;;;4959946;29;20177;-81
2023/08/10 15:00:45;;;;;;;3.72;2.05;;;23.50;70.80;;;;;;4960116;29;20181;-81
2023/08/10 15:03:10;;;;;;;2.03;1.88;;;23.40;68.60;;;;;;4960779;29;20196;-81
2023/08/10 15:05:36;;;;;;;2.33;1.92;;;23.50;69.00;;;;;;4960426;28;20193;-81
2023/08/10 15:08:05;;;;;;;5.00;2.00;;;23.40;71.70;;;;;;4960085;29;20190;-81
2023/08/10 15:10:31;;;;;;;2.45;2.25;;;23.30;72.50;;;;;;4959057;29;20182;-82
2023/08/10 15:12:56;;;;;;;2.58;2.15;;;23.30;72.20;;;;;;4958862;29;20181;-81
2023/08/10 15:15:35;;;;;;;3.83;2.20;;;23.30;71.40;;;;;;4958270;29;20264;-81
2023/08/10 15:18:01;;;;;;;2.40;2.20;;;23.30;71.60;;;;;;4957911;29;20188;-81
2023/08/10 15:20:26;;;;;;;2.47;2.28;;;23.20;71.60;;;;;;4958033;29;20182;-81
2023/08/10 15:22:52;;;;;;;2.30;2.10;;;23.10;71.90;;;;;;4959398;29;20185;-85
2023/08/10 15:25:18;;;;;;;2.28;2.10;;;23.10;70.30;;;;;;4959811;29;20272;-83
2023/08/10 15:27:44;;;;;;;2.42;2.20;;;23.10;71.70;;;;;;4958828;28;20213;-81
2023/08/10 15:30:13;;;;;;;3.35;2.10;;;23.10;72.30;;;;;;4960194;29;20208;-82
2023/08/10 15:32:39;;;;;;;2.30;2.20;;;23.20;72.30;;;;;;4959565;29;20205;-81
2023/08/10 15:35:06;;;;;;;3.35;2.08;;;23.40;71.30;;;;;;4975320;28;20190;-81
2023/08/10 15:37:32;;;;;;;2.88;1.95;;;23.40;70.60;;;;;;4959721;28;20202;-81
2023/08/10 15:39:58;;;;;;;2.35;2.15;;;23.40;71.20;;;;;;4960783;29;20575;-81
2023/08/10 15:42:24;;;;;;;2.88;1.95;;;23.30;72.50;;;;;;4959706;29;20193;-81
2023/08/10 15:44:50;;;;;;;3.40;2.20;;;23.20;74.10;;;;;;4959017;28;20181;-81
2023/08/10 15:47:16;;;;;;;2.53;2.00;;;23.10;74.10;;;;;;4959376;28;20256;-81
2023/08/10 15:49:41;;;;;;;5.07;2.20;;;23.00;74.30;;;;;;4959043;29;20201;-81
2023/08/10 15:52:07;;;;;;;4.03;2.03;;;23.00;72.80;;;;;;4959381;29;20173;-81
2023/08/10 15:54:36;;;;;;;2.10;2.00;;;22.90;71.70;;;;;;4959270;29;20174;-82
2023/08/10 15:57:01;;;;;;;2.03;1.92;;;22.90;71.90;;;;;;4959310;28;20193;-81
2023/08/10 15:59:30;;;;;;;2.45;2.25;;;22.70;72.30;;;;;;4959820;29;20186;-82
2023/08/10 16:01:57;;;;;;;2.45;1.98;;;22.50;71.80;;;;;;4959699;29;20215;-82
2023/08/10 16:04:25;;;;;;;2.38;2.15;;;22.40;72.90;;;;;;4959770;29;20182;-81
2023/08/10 16:06:51;;;;;;;3.22;2.28;;;22.20;74.90;;;;;;4959990;28;20210;-81
2023/08/10 16:09:16;;;;;;;2.80;2.20;;;22.00;75.50;;;;;;4959514;29;20639;-81
2023/08/10 16:11:43;;;;;;;3.42;2.10;;;22.00;75.40;;;;;;4959478;29;20177;-81
2023/08/10 16:14:08;;;;;;;2.97;2.00;;;21.90;75.30;;;;;;4958863;29;20174;-81
2023/08/10 16:16:34;;;;;;;3.13;2.35;;;21.90;75.70;;;;;;4958624;28;20225;-81
2023/08/10 16:18:59;;;;;;;2.17;2.08;;;21.80;74.70;;;;;;4958723;29;20207;-82
2023/08/10 16:21:25;;;;;;;2.17;1.98;;;21.90;72.80;;;;;;4959022;29;20193;-81
2023/08/10 16:23:51;;;;;;;3.13;2.03;;;21.80;73.30;;;;;;4958959;29;20272;-81
2023/08/10 16:26:16;;;;;;;2.17;2.08;;;21.70;74.20;;;;;;4958391;28;20193;-81
2023/08/10 16:28:42;;;;;;;2.28;2.10;;;21.60;75.50;;;;;;4958840;29;20274;-81
2023/08/10 16:31:08;;;;;;;3.33;1.90;;;21.60;75.90;;;;;;4958894;29;20201;-81
2023/08/10 16:33:34;;;;;;;2.70;2.03;;;21.60;76.50;;;;;;4958171;29;20197;-81
2023/08/10 16:36:00;;;;;;;2.63;2.20;;;21.50;75.40;;;;;;4958120;29;20554;-81
2023/08/10 16:38:26;;;;;;;3.08;2.03;;;21.50;75.20;;;;;;4958805;29;20703;-81
2023/08/10 16:40:51;;;;;;;3.00;1.80;;;21.60;73.70;;;;;;4958658;29;20185;-81
2023/08/10 16:43:17;;;;;;;3.53;2.15;;;21.70;75.00;;;;;;4959428;29;20205;-81
2023/08/10 16:45:43;;;;;;;2.38;2.17;;;21.90;72.90;;;;;;4958729;28;20182;-81
2023/08/10 16:48:09;;;;;;;4.13;2.10;;;21.90;74.60;;;;;;4960256;28;20170;-81
2023/08/10 16:50:35;;;;;;;2.22;2.03;;;21.90;76.10;;;;;;4958278;29;20734;-81
2023/08/10 16:53:01;;;;;;;2.25;2.05;;;22.00;72.30;;;;;;4958871;29;20596;-81
2023/08/10 16:55:26;;;;;;;2.45;2.25;;;22.00;73.50;;;;;;4958383;28;20188;-81
2023/08/10 16:57:53;;;;;;;2.05;1.95;;;22.00;75.90;;;;;;4962882;29;20177;-81
2023/08/10 17:00:19;;;;;;;3.15;2.20;;;22.00;72.40;;;;;;4963372;29;20212;-81
2023/08/10 17:02:44;;;;;;;2.33;2.22;;;21.90;72.90;;;;;;4962351;29;20177;-81
2023/08/10 17:05:11;;;;;;;2.15;2.05;;;21.80;75.40;;;;;;4963567;28;20237;-81
2023/08/10 17:07:37;;;;;;;4.15;2.25;;;21.70;75.00;;;;;;4962581;28;20207;-80
2023/08/10 17:10:05;;;;;;;2.17;2.08;;;21.70;74.10;;;;;;4962062;29;20201;-80
2023/08/10 17:12:31;;;;;;;2.45;2.25;;;21.60;73.60;;;;;;4962258;29;20177;-80
2023/08/10 17:15:01;;;;;;;2.25;2.05;;;21.50;74.60;;;;;;4963037;29;20273;-80
2023/08/10 17:17:27;;;;;;;2.40;2.20;;;21.40;74.90;;;;;;4962711;28;20284;-80
2023/08/10 17:19:53;;;;;;;2.55;2.25;;;21.20;76.70;;;;;;4964586;28;20212;-80
2023/08/10 17:22:18;;;;;;;2.28;2.10;;;21.10;78.00;;;;;;4962851;29;20259;-81
2023/08/10 17:24:44;;;;;;;2.50;2.30;;;21.00;77.60;;;;;;4963321;29;20193;-81
2023/08/10 17:27:10;;;;;;;3.35;2.20;;;21.00;77.90;;;;;;4962083;28;20201;-81
2023/08/10 17:29:35;;;;;;;2.13;2.00;;;21.00;79.00;;;;;;4961790;29;20213;-80
2023/08/10 17:32:01;;;;;;;3.70;2.20;;;20.90;77.50;;;;;;4961613;29;20185;-80
2023/08/10 17:34:27;;;;;;;4.10;2.30;;;20.90;78.50;;;;;;4961755;29;20245;-81
2023/08/10 17:36:54;;;;;;;3.47;2.05;;;20.90;78.70;;;;;;4961812;29;20206;-80
2023/08/10 17:39:20;;;;;;;3.40;2.33;;;20.80;79.80;;;;;;4962511;29;20224;-80
2023/08/10 17:41:48;;;;;;;2.50;2.30;;;20.70;80.10;;;;;;4962351;29;20177;-81
2023/08/10 17:44:14;;;;;;;2.30;2.10;;;20.60;79.80;;;;;;4966473;29;20199;-80
2023/08/10 17:46:44;;;;;;;2.72;2.38;;;20.50;80.30;;;;;;4966561;28;20210;-80
2023/08/10 17:49:09;;;;;;;3.10;2.00;;;20.50;80.40;;;;;;4967483;29;20182;-80
2023/08/10 17:51:35;;;;;;;3.53;2.30;;;20.40;80.30;;;;;;4965230;29;20208;-80
2023/08/10 17:54:00;;;;;;;2.67;2.30;;;20.40;81.30;;;;;;4965677;29;20181;-81
2023/08/10 17:56:26;;;;;;;2.70;2.50;;;20.30;82.40;;;;;;4961264;28;20205;-81
2023/08/10 17:59:00;;;;;;;2.58;2.35;;;20.30;83.50;;;;;;4961709;29;20216;-81
2023/08/10 18:01:26;;;;;;;2.83;2.30;;;20.10;84.10;;;;;;4962119;29;20191;-80
2023/08/10 18:03:51;;;;;;;2.83;2.17;;;20.00;84.80;;;;;;4962046;29;20181;-80
2023/08/10 18:06:17;;;;;;;3.85;2.45;;;19.90;85.20;;;;;;4961254;28;20205;-82
2023/08/10 18:08:49;;;;;;;2.72;2.33;;;19.70;85.90;;;;;;4961594;28;20186;-88
2023/08/10 18:11:15;;;;;;;5.90;2.05;;;19.70;85.40;;;;;;4964969;29;20205;-83
2023/08/10 18:13:40;;;;;;;2.20;2.05;;;19.50;87.40;;;;;;4960497;29;20268;-83
2023/08/10 18:16:06;;;;;;;2.42;2.25;;;19.30;88.80;;;;;;4960292;28;20209;-80
2023/08/10 18:18:32;;;;;;;4.20;2.70;;;19.20;89.00;;;;;;4962721;29;20184;-80
2023/08/10 18:21:01;;;;;;;2.95;2.63;;;19.20;90.50;;;;;;4966982;29;20189;-79
2023/08/10 18:23:28;;;;;;;8.60;2.60;;;19.00;90.70;;;;;;4966057;29;20177;-81
2023/08/10 18:25:59;;;;;;;4.47;2.30;;;18.90;90.80;;;;;;4965704;28;20209;-80
2023/08/10 18:28:24;;;;;;;2.55;2.35;;;18.70;90.90;;;;;;4964568;29;20225;-81
2023/08/10 18:30:51;;;;;;;4.30;2.30;;;18.60;91.10;;;;;;4964234;29;20217;-80
2023/08/10 18:33:20;;;;;;;6.10;2.40;;;18.50;91.30;;;;;;4962565;29;20282;-80
2023/08/10 18:35:46;;;;;;;6.57;2.50;;;18.40;91.90;;;;;;4950275;29;20707;-80
2023/08/10 18:38:11;;;;;;;7.43;2.40;;;18.30;92.80;;;;;;4962584;28;20186;-80
2023/08/10 18:40:41;;;;;;;5.32;2.38;;;18.20;93.20;;;;;;4958144;29;20249;-80
2023/08/10 18:43:07;;;;;;;3.28;2.50;;;18.10;93.80;;;;;;4958683;29;20185;-80
2023/08/10 18:45:34;;;;;;;5.55;2.53;;;18.00;94.10;;;;;;4958450;28;20224;-80
2023/08/10 18:48:02;;;;;;;6.88;2.50;;;17.90;94.60;;;;;;4959123;28;20176;-80
2023/08/10 18:50:27;;;;;;;9.07;3.00;;;17.80;95.20;;;;;;4947484;29;20277;-80
2023/08/10 18:52:53;;;;;;;15.07;3.08;;;17.70;95.80;;;;;;4959170;28;20185;-79
2023/08/10 18:55:19;;;;;;;21.42;3.65;;;17.60;96.00;;;;;;4959577;29;20180;-79
2023/08/10 18:57:45;;;;;;;22.73;3.85;;;17.60;96.30;;;;;;4959713;28;20206;-80
2023/08/10 19:00:12;;;;;;;20.15;4.05;;;17.60;96.70;;;;;;4959549;29;20663;-79
2023/08/10 19:02:39;;;;;;;20.35;4.35;;;17.50;96.70;;;;;;4959634;28;20281;-80
2023/08/10 19:05:17;;;;;;;17.98;3.85;;;17.50;97.20;;;;;;4959304;29;20185;-80
2023/08/10 19:07:48;;;;;;;20.88;3.42;;;17.40;97.40;;;;;;4959831;28;20197;-80
2023/08/10 19:10:14;;;;;;;19.23;3.80;;;17.30;97.70;;;;;;4957035;29;20217;-79
2023/08/10 19:12:39;;;;;;;10.00;3.40;;;17.30;97.90;;;;;;4960218;29;20177;-79
2023/08/10 19:15:06;;;;;;;9.25;3.20;;;17.20;98.10;;;;;;4957709;29;20653;-79
2023/08/10 19:17:31;;;;;;;20.52;3.80;;;17.20;98.30;;;;;;4959077;28;20198;-78
2023/08/10 19:20:02;;;;;;;17.13;4.13;;;17.10;98.50;;;;;;4956261;28;20189;-79
2023/08/10 19:22:31;;;;;;;11.80;3.08;;;17.00;98.70;;;;;;4958165;29;20213;-79
2023/08/10 19:25:27;;;;;;;7.55;2.83;;;17.00;99.00;;;;;;4954037;29;20201;-79
2023/08/10 19:27:53;;;;;;;16.65;3.17;;;16.90;99.20;;;;;;4940961;29;20197;-78
2023/08/10 19:30:21;;;;;;;6.65;3.03;;;16.80;99.60;;;;;;4958162;29;20252;-79
2023/08/10 19:32:50;;;;;;;11.77;3.72;;;16.70;99.90;;;;;;4958168;29;20162;-79
2023/08/10 19:35:17;;;;;;;28.27;4.70;;;16.60;99.90;;;;;;4959223;28;20168;-79
2023/08/10 19:37:45;;;;;;;32.67;4.75;;;16.50;99.90;;;;;;4958463;28;20205;-79
2023/08/10 19:40:14;;;;;;;39.58;3.90;;;16.50;99.90;;;;;;4957409;29;20220;-79
2023/08/10 19:42:41;;;;;;;17.77;3.55;;;16.40;99.90;;;;;;4957889;29;20178;-79
2023/08/10 19:45:15;;;;;;;19.88;3.30;;;16.40;99.90;;;;;;4957687;29;20183;-79
2023/08/10 19:47:41;;;;;;;10.00;3.45;;;16.30;99.90;;;;;;4958277;28;20629;-79
2023/08/10 19:50:07;;;;;;;25.25;4.50;;;16.30;99.90;;;;;;4958911;29;20209;-79
2023/08/10 19:52:34;;;;;;;16.25;3.45;;;16.20;99.90;;;;;;4958543;29;20265;-79
2023/08/10 19:54:59;;;;;;;13.52;3.85;;;16.20;99.90;;;;;;4956975;29;20710;-80
2023/08/10 19:57:25;;;;;;;11.45;3.60;;;16.20;99.90;;;;;;4957656;28;20293;-79
2023/08/10 19:59:56;;;;;;;14.85;3.53;;;16.10;99.90;;;;;;4957507;29;20181;-79
2023/08/10 20:02:24;;;;;;;8.82;3.25;;;16.10;99.90;;;;;;4958180;29;20196;-79
2023/08/10 20:04:52;;;;;;;11.77;3.08;;;16.00;99.90;;;;;;4957401;29;20272;-80
2023/08/10 20:07:17;;;;;;;11.98;3.50;;;16.00;99.90;;;;;;4957751;28;20198;-80
2023/08/10 20:09:43;;;;;;;16.15;4.10;;;15.90;99.90;;;;;;4956736;29;20730;-80
2023/08/10 20:12:09;;;;;;;11.15;3.35;;;15.90;99.90;;;;;;4956401;29;20224;-80
2023/08/10 20:14:42;;;;;;;10.20;3.60;;;15.80;99.90;;;;;;4957878;29;20189;-80
2023/08/10 20:17:27;;;;;;;10.65;3.08;;;15.80;99.90;;;;;;4956002;28;20231;-80
2023/08/10 20:19:53;;;;;;;8.07;3.47;;;15.60;99.90;;;;;;4957618;29;20181;-80
2023/08/10 20:22:18;;;;;;;19.30;3.40;;;15.60;99.90;;;;;;4953361;29;20545;-80
2023/08/10 20:24:44;;;;;;;22.20;4.50;;;15.60;99.90;;;;;;4953428;29;20214;-80